sensor_id;sensor_type;location;lat;lon;timestamp;pressure;altitude;pressure_sealevel;temperature
15626;BMP180;7912;51.376;6.126;2023-03-12T00:00:32;100870.00;;;7.40
15626;BMP180;7912;51.376;6.126;2023-03-12T00:02:59;100874.00;;;7.40
15626;BMP180;7912;51.376;6.126;2023-03-12T00:05:27;100871.00;;;7.40
15626;BMP180;7912;51.376;6.126;2023-03-12T00:08:12;100865.00;;;7.30
15626;BMP180;7912;51.376;6.126;2023-03-12T00:10:50;100854.00;;;7.40
15626;BMP180;7912;51.376;6.126;2023-03-12T00:13:26;100856.00;;;7.40
15626;BMP180;7912;51.376;6.126;2023-03-12T00:16:12;100871.00;;;7.40
15626;BMP180;7912;51.376;6.126;2023-03-12T00:19:00;100874.00;;;7.40
15626;BMP180;7912;51.376;6.126;2023-03-12T00:21:41;100862.00;;;7.40
15626;BMP180;7912;51.376;6.126;2023-03-12T00:24:22;100866.00;;;7.50
15626;BMP180;7912;51.376;6.126;2023-03-12T00:27:26;100854.00;;;7.40
15626;BMP180;7912;51.376;6.126;2023-03-12T00:30:28;100836.00;;;7.40
15626;BMP180;7912;51.376;6.126;2023-03-12T00:33:28;100853.00;;;7.40
15626;BMP180;7912;51.376;6.126;2023-03-12T00:36:08;100851.00;;;7.40
15626;BMP180;7912;51.376;6.126;2023-03-12T00:38:36;100852.00;;;7.40
15626;BMP180;7912;51.376;6.126;2023-03-12T00:41:10;100843.00;;;7.40
15626;BMP180;7912;51.376;6.126;2023-03-12T00:43:38;100850.00;;;7.40
15626;BMP180;7912;51.376;6.126;2023-03-12T00:46:05;100846.00;;;7.50
15626;BMP180;7912;51.376;6.126;2023-03-12T00:48:32;100843.00;;;7.40
15626;BMP180;7912;51.376;6.126;2023-03-12T00:51:00;100834.00;;;7.50
15626;BMP180;7912;51.376;6.126;2023-03-12T00:53:46;100827.00;;;7.50
15626;BMP180;7912;51.376;6.126;2023-03-12T00:57:17;100812.00;;;7.40
15626;BMP180;7912;51.376;6.126;2023-03-12T00:59:51;100802.00;;;7.40
15626;BMP180;7912;51.376;6.126;2023-03-12T01:02:39;100831.00;;;7.40
15626;BMP180;7912;51.376;6.126;2023-03-12T01:05:21;100826.00;;;7.40
15626;BMP180;7912;51.376;6.126;2023-03-12T01:07:56;100808.00;;;7.40
15626;BMP180;7912;51.376;6.126;2023-03-12T01:10:47;100789.00;;;7.30
15626;BMP180;7912;51.376;6.126;2023-03-12T01:13:15;100797.00;;;7.30
15626;BMP180;7912;51.376;6.126;2023-03-12T01:15:42;100790.00;;;7.30
15626;BMP180;7912;51.376;6.126;2023-03-12T01:18:27;100790.00;;;7.30
15626;BMP180;7912;51.376;6.126;2023-03-12T01:20:57;100792.00;;;7.20
15626;BMP180;7912;51.376;6.126;2023-03-12T01:23:43;100776.00;;;7.20
15626;BMP180;7912;51.376;6.126;2023-03-12T01:26:13;100792.00;;;7.20
15626;BMP180;7912;51.376;6.126;2023-03-12T01:28:40;100776.00;;;7.20
15626;BMP180;7912;51.376;6.126;2023-03-12T01:31:15;100800.00;;;7.20
15626;BMP180;7912;51.376;6.126;2023-03-12T01:33:44;100806.00;;;7.30
15626;BMP180;7912;51.376;6.126;2023-03-12T01:36:27;100763.00;;;7.30
15626;BMP180;7912;51.376;6.126;2023-03-12T01:38:59;100770.00;;;7.30
15626;BMP180;7912;51.376;6.126;2023-03-12T01:41:29;100765.00;;;7.30
15626;BMP180;7912;51.376;6.126;2023-03-12T01:44:00;100769.00;;;7.30
15626;BMP180;7912;51.376;6.126;2023-03-12T01:46:41;100783.00;;;7.30
15626;BMP180;7912;51.376;6.126;2023-03-12T01:49:26;100769.00;;;7.30
15626;BMP180;7912;51.376;6.126;2023-03-12T01:52:15;100777.00;;;7.30
15626;BMP180;7912;51.376;6.126;2023-03-12T01:54:52;100759.00;;;7.30
15626;BMP180;7912;51.376;6.126;2023-03-12T02:04:06;100767.00;;;7.30
15626;BMP180;7912;51.376;6.126;2023-03-12T02:07:13;100766.00;;;7.30
15626;BMP180;7912;51.376;6.126;2023-03-12T02:09:48;100750.00;;;7.30
15626;BMP180;7912;51.376;6.126;2023-03-12T02:12:24;100771.00;;;7.30
15626;BMP180;7912;51.376;6.126;2023-03-12T02:14:51;100771.00;;;7.30
15626;BMP180;7912;51.376;6.126;2023-03-12T02:17:40;100753.00;;;7.30
15626;BMP180;7912;51.376;6.126;2023-03-12T02:23:31;100733.00;;;7.40
15626;BMP180;7912;51.376;6.126;2023-03-12T02:26:21;100724.00;;;7.40
15626;BMP180;7912;51.376;6.126;2023-03-12T02:29:00;100720.00;;;7.40
15626;BMP180;7912;51.376;6.126;2023-03-12T02:31:42;100701.00;;;7.40
15626;BMP180;7912;51.376;6.126;2023-03-12T02:34:13;100716.00;;;7.30
15626;BMP180;7912;51.376;6.126;2023-03-12T02:36:47;100731.00;;;7.30
15626;BMP180;7912;51.376;6.126;2023-03-12T02:39:21;100738.00;;;7.30
15626;BMP180;7912;51.376;6.126;2023-03-12T02:41:53;100719.00;;;7.30
15626;BMP180;7912;51.376;6.126;2023-03-12T02:48:34;100709.00;;;7.20
15626;BMP180;7912;51.376;6.126;2023-03-12T02:51:02;100707.00;;;7.20
15626;BMP180;7912;51.376;6.126;2023-03-12T02:53:29;100702.00;;;7.20
15626;BMP180;7912;51.376;6.126;2023-03-12T02:55:57;100702.00;;;7.20
15626;BMP180;7912;51.376;6.126;2023-03-12T02:58:28;100698.00;;;7.20
15626;BMP180;7912;51.376;6.126;2023-03-12T03:00:59;100703.00;;;7.20
15626;BMP180;7912;51.376;6.126;2023-03-12T03:03:27;100700.00;;;7.30
15626;BMP180;7912;51.376;6.126;2023-03-12T03:05:59;100696.00;;;7.20
15626;BMP180;7912;51.376;6.126;2023-03-12T03:08:32;100707.00;;;7.30
15626;BMP180;7912;51.376;6.126;2023-03-12T03:11:23;100686.00;;;7.30
15626;BMP180;7912;51.376;6.126;2023-03-12T03:14:14;100680.00;;;7.30
15626;BMP180;7912;51.376;6.126;2023-03-12T03:21:36;100690.00;;;7.20
15626;BMP180;7912;51.376;6.126;2023-03-12T03:24:36;100710.00;;;7.20
15626;BMP180;7912;51.376;6.126;2023-03-12T03:27:07;100716.00;;;7.20
15626;BMP180;7912;51.376;6.126;2023-03-12T03:30:03;100707.00;;;7.20
15626;BMP180;7912;51.376;6.126;2023-03-12T03:32:43;100704.00;;;7.20
15626;BMP180;7912;51.376;6.126;2023-03-12T03:35:22;100703.00;;;7.20
15626;BMP180;7912;51.376;6.126;2023-03-12T03:37:50;100687.00;;;7.30
15626;BMP180;7912;51.376;6.126;2023-03-12T03:40:17;100689.00;;;7.30
15626;BMP180;7912;51.376;6.126;2023-03-12T03:43:00;100685.00;;;7.30
15626;BMP180;7912;51.376;6.126;2023-03-12T03:45:35;100701.00;;;7.30
15626;BMP180;7912;51.376;6.126;2023-03-12T03:48:16;100697.00;;;7.30
15626;BMP180;7912;51.376;6.126;2023-03-12T03:50:43;100704.00;;;7.30
15626;BMP180;7912;51.376;6.126;2023-03-12T03:53:18;100711.00;;;7.30
15626;BMP180;7912;51.376;6.126;2023-03-12T03:55:47;100704.00;;;7.40
15626;BMP180;7912;51.376;6.126;2023-03-12T03:58:14;100706.00;;;7.40
15626;BMP180;7912;51.376;6.126;2023-03-12T04:00:46;100702.00;;;7.40
15626;BMP180;7912;51.376;6.126;2023-03-12T04:03:14;100698.00;;;7.40
15626;BMP180;7912;51.376;6.126;2023-03-12T04:05:41;100692.00;;;7.40
15626;BMP180;7912;51.376;6.126;2023-03-12T04:08:25;100684.00;;;7.40
15626;BMP180;7912;51.376;6.126;2023-03-12T04:11:17;100703.00;;;7.40
15626;BMP180;7912;51.376;6.126;2023-03-12T04:13:49;100688.00;;;7.40
15626;BMP180;7912;51.376;6.126;2023-03-12T04:16:17;100676.00;;;7.40
15626;BMP180;7912;51.376;6.126;2023-03-12T04:18:48;100696.00;;;7.40
15626;BMP180;7912;51.376;6.126;2023-03-12T04:21:15;100667.00;;;7.40
15626;BMP180;7912;51.376;6.126;2023-03-12T04:23:49;100658.00;;;7.40
15626;BMP180;7912;51.376;6.126;2023-03-12T04:26:22;100661.00;;;7.40
15626;BMP180;7912;51.376;6.126;2023-03-12T04:29:23;100644.00;;;7.40
15626;BMP180;7912;51.376;6.126;2023-03-12T04:32:12;100630.00;;;7.30
15626;BMP180;7912;51.376;6.126;2023-03-12T04:34:46;100627.00;;;7.40
15626;BMP180;7912;51.376;6.126;2023-03-12T04:37:14;100645.00;;;7.30
15626;BMP180;7912;51.376;6.126;2023-03-12T04:39:53;100640.00;;;7.30
15626;BMP180;7912;51.376;6.126;2023-03-12T04:42:20;100619.00;;;7.30
15626;BMP180;7912;51.376;6.126;2023-03-12T04:44:50;100629.00;;;7.20
15626;BMP180;7912;51.376;6.126;2023-03-12T04:47:18;100622.00;;;7.20
15626;BMP180;7912;51.376;6.126;2023-03-12T04:49:46;100617.00;;;7.10
15626;BMP180;7912;51.376;6.126;2023-03-12T04:52:13;100609.00;;;7.10
15626;BMP180;7912;51.376;6.126;2023-03-12T04:54:40;100607.00;;;7.10
15626;BMP180;7912;51.376;6.126;2023-03-12T04:57:23;100616.00;;;7.10
15626;BMP180;7912;51.376;6.126;2023-03-12T05:00:14;100613.00;;;7.10
15626;BMP180;7912;51.376;6.126;2023-03-12T05:03:21;100615.00;;;7.10
15626;BMP180;7912;51.376;6.126;2023-03-12T05:06:23;100577.00;;;7.10
15626;BMP180;7912;51.376;6.126;2023-03-12T05:08:57;100599.00;;;7.10
15626;BMP180;7912;51.376;6.126;2023-03-12T05:18:28;100578.00;;;7.00
15626;BMP180;7912;51.376;6.126;2023-03-12T05:21:21;100564.00;;;7.10
15626;BMP180;7912;51.376;6.126;2023-03-12T05:24:22;100537.00;;;7.10
15626;BMP180;7912;51.376;6.126;2023-03-12T05:26:54;100552.00;;;7.10
15626;BMP180;7912;51.376;6.126;2023-03-12T05:29:21;100551.00;;;7.10
15626;BMP180;7912;51.376;6.126;2023-03-12T05:32:11;100559.00;;;7.10
15626;BMP180;7912;51.376;6.126;2023-03-12T05:34:51;100554.00;;;7.10
15626;BMP180;7912;51.376;6.126;2023-03-12T05:37:27;100561.00;;;7.10
15626;BMP180;7912;51.376;6.126;2023-03-12T05:39:54;100562.00;;;7.10
15626;BMP180;7912;51.376;6.126;2023-03-12T05:42:49;100558.00;;;7.20
15626;BMP180;7912;51.376;6.126;2023-03-12T05:52:38;100531.00;;;7.00
15626;BMP180;7912;51.376;6.126;2023-03-12T05:55:26;100522.00;;;7.10
15626;BMP180;7912;51.376;6.126;2023-03-12T05:57:55;100534.00;;;7.10
15626;BMP180;7912;51.376;6.126;2023-03-12T06:00:23;100536.00;;;7.10
15626;BMP180;7912;51.376;6.126;2023-03-12T06:02:52;100522.00;;;7.10
15626;BMP180;7912;51.376;6.126;2023-03-12T06:05:43;100538.00;;;7.20
15626;BMP180;7912;51.376;6.126;2023-03-12T06:08:25;100538.00;;;7.20
15626;BMP180;7912;51.376;6.126;2023-03-12T06:10:54;100525.00;;;7.30
15626;BMP180;7912;51.376;6.126;2023-03-12T06:13:39;100532.00;;;7.30
15626;BMP180;7912;51.376;6.126;2023-03-12T06:16:26;100541.00;;;7.30
15626;BMP180;7912;51.376;6.126;2023-03-12T06:19:06;100541.00;;;7.30
15626;BMP180;7912;51.376;6.126;2023-03-12T06:21:46;100527.00;;;7.30
15626;BMP180;7912;51.376;6.126;2023-03-12T06:24:37;100526.00;;;7.40
15626;BMP180;7912;51.376;6.126;2023-03-12T06:27:11;100517.00;;;7.40
15626;BMP180;7912;51.376;6.126;2023-03-12T06:29:38;100535.00;;;7.40
15626;BMP180;7912;51.376;6.126;2023-03-12T06:32:08;100528.00;;;7.50
15626;BMP180;7912;51.376;6.126;2023-03-12T06:34:47;100528.00;;;7.50
15626;BMP180;7912;51.376;6.126;2023-03-12T06:37:23;100526.00;;;7.60
15626;BMP180;7912;51.376;6.126;2023-03-12T06:40:08;100546.00;;;7.60
15626;BMP180;7912;51.376;6.126;2023-03-12T06:42:46;100526.00;;;7.60
15626;BMP180;7912;51.376;6.126;2023-03-12T06:45:26;100525.00;;;7.70
15626;BMP180;7912;51.376;6.126;2023-03-12T06:48:12;100517.00;;;7.60
15626;BMP180;7912;51.376;6.126;2023-03-12T06:50:47;100530.00;;;7.60
15626;BMP180;7912;51.376;6.126;2023-03-12T06:53:36;100508.00;;;7.60
15626;BMP180;7912;51.376;6.126;2023-03-12T06:56:39;100525.00;;;7.60
15626;BMP180;7912;51.376;6.126;2023-03-12T07:03:16;100527.00;;;7.50
15626;BMP180;7912;51.376;6.126;2023-03-12T07:08:52;100510.00;;;7.60
15626;BMP180;7912;51.376;6.126;2023-03-12T07:11:56;100500.00;;;7.60
15626;BMP180;7912;51.376;6.126;2023-03-12T07:14:23;100508.00;;;7.50
15626;BMP180;7912;51.376;6.126;2023-03-12T07:16:59;100496.00;;;7.60
15626;BMP180;7912;51.376;6.126;2023-03-12T07:19:39;100511.00;;;7.60
15626;BMP180;7912;51.376;6.126;2023-03-12T07:22:07;100510.00;;;7.60
15626;BMP180;7912;51.376;6.126;2023-03-12T07:25:13;100490.00;;;7.60
15626;BMP180;7912;51.376;6.126;2023-03-12T07:28:12;100490.00;;;7.50
15626;BMP180;7912;51.376;6.126;2023-03-12T07:31:20;100487.00;;;7.60
15626;BMP180;7912;51.376;6.126;2023-03-12T07:34:26;100497.00;;;7.60
15626;BMP180;7912;51.376;6.126;2023-03-12T07:36:53;100514.00;;;7.70
15626;BMP180;7912;51.376;6.126;2023-03-12T07:39:22;100501.00;;;7.70
15626;BMP180;7912;51.376;6.126;2023-03-12T07:42:36;100497.00;;;7.80
15626;BMP180;7912;51.376;6.126;2023-03-12T07:45:34;100509.00;;;7.80
15626;BMP180;7912;51.376;6.126;2023-03-12T07:48:15;100504.00;;;7.90
15626;BMP180;7912;51.376;6.126;2023-03-12T07:51:06;100489.00;;;7.90
15626;BMP180;7912;51.376;6.126;2023-03-12T07:57:05;100495.00;;;8.00
15626;BMP180;7912;51.376;6.126;2023-03-12T07:59:51;100484.00;;;8.10
15626;BMP180;7912;51.376;6.126;2023-03-12T08:02:29;100486.00;;;8.10
15626;BMP180;7912;51.376;6.126;2023-03-12T08:05:11;100501.00;;;8.20
15626;BMP180;7912;51.376;6.126;2023-03-12T08:07:43;100500.00;;;8.20
15626;BMP180;7912;51.376;6.126;2023-03-12T08:10:11;100493.00;;;8.30
15626;BMP180;7912;51.376;6.126;2023-03-12T08:12:39;100493.00;;;8.30
15626;BMP180;7912;51.376;6.126;2023-03-12T08:15:07;100490.00;;;8.30
15626;BMP180;7912;51.376;6.126;2023-03-12T08:17:39;100490.00;;;8.40
15626;BMP180;7912;51.376;6.126;2023-03-12T08:24:16;100487.00;;;8.50
15626;BMP180;7912;51.376;6.126;2023-03-12T08:26:43;100474.00;;;8.50
15626;BMP180;7912;51.376;6.126;2023-03-12T08:29:11;100480.00;;;8.60
15626;BMP180;7912;51.376;6.126;2023-03-12T08:31:39;100485.00;;;8.60
15626;BMP180;7912;51.376;6.126;2023-03-12T08:34:26;100487.00;;;8.60
15626;BMP180;7912;51.376;6.126;2023-03-12T08:36:54;100468.00;;;8.70
15626;BMP180;7912;51.376;6.126;2023-03-12T08:39:22;100484.00;;;8.70
15626;BMP180;7912;51.376;6.126;2023-03-12T08:41:50;100488.00;;;8.80
15626;BMP180;7912;51.376;6.126;2023-03-12T08:48:32;100486.00;;;8.80
15626;BMP180;7912;51.376;6.126;2023-03-12T08:59:20;100475.00;;;8.90
15626;BMP180;7912;51.376;6.126;2023-03-12T09:06:17;100481.00;;;9.00
15626;BMP180;7912;51.376;6.126;2023-03-12T09:09:07;100483.00;;;9.10
15626;BMP180;7912;51.376;6.126;2023-03-12T09:11:38;100491.00;;;9.10
15626;BMP180;7912;51.376;6.126;2023-03-12T09:18:10;100489.00;;;9.20
15626;BMP180;7912;51.376;6.126;2023-03-12T09:20:38;100501.00;;;9.20
15626;BMP180;7912;51.376;6.126;2023-03-12T09:23:05;100490.00;;;9.30
15626;BMP180;7912;51.376;6.126;2023-03-12T09:25:55;100493.00;;;9.40
15626;BMP180;7912;51.376;6.126;2023-03-12T09:28:24;100491.00;;;9.40
15626;BMP180;7912;51.376;6.126;2023-03-12T09:30:51;100504.00;;;9.50
15626;BMP180;7912;51.376;6.126;2023-03-12T09:45:49;100493.00;;;9.70
15626;BMP180;7912;51.376;6.126;2023-03-12T09:48:35;100487.00;;;9.80
15626;BMP180;7912;51.376;6.126;2023-03-12T09:55:20;100488.00;;;10.00
15626;BMP180;7912;51.376;6.126;2023-03-12T09:57:51;100492.00;;;10.10
15626;BMP180;7912;51.376;6.126;2023-03-12T10:00:29;100491.00;;;10.20
15626;BMP180;7912;51.376;6.126;2023-03-12T10:03:46;100505.00;;;10.40
15626;BMP180;7912;51.376;6.126;2023-03-12T10:15:31;100510.00;;;10.70
15626;BMP180;7912;51.376;6.126;2023-03-12T10:21:24;100502.00;;;10.90
15626;BMP180;7912;51.376;6.126;2023-03-12T10:24:32;100517.00;;;11.10
15626;BMP180;7912;51.376;6.126;2023-03-12T10:27:05;100517.00;;;11.20
15626;BMP180;7912;51.376;6.126;2023-03-12T10:29:44;100516.00;;;11.30
15626;BMP180;7912;51.376;6.126;2023-03-12T10:32:16;100503.00;;;11.40
15626;BMP180;7912;51.376;6.126;2023-03-12T10:35:33;100518.00;;;11.50
15626;BMP180;7912;51.376;6.126;2023-03-12T10:38:16;100505.00;;;11.60
15626;BMP180;7912;51.376;6.126;2023-03-12T10:40:44;100506.00;;;11.70
15626;BMP180;7912;51.376;6.126;2023-03-12T10:43:34;100520.00;;;11.80
15626;BMP180;7912;51.376;6.126;2023-03-12T10:49:39;100501.00;;;12.10
15626;BMP180;7912;51.376;6.126;2023-03-12T10:52:38;100513.00;;;12.20
15626;BMP180;7912;51.376;6.126;2023-03-12T10:58:32;100500.00;;;12.50
15626;BMP180;7912;51.376;6.126;2023-03-12T11:01:27;100506.00;;;12.60
15626;BMP180;7912;51.376;6.126;2023-03-12T11:04:39;100491.00;;;12.70
15626;BMP180;7912;51.376;6.126;2023-03-12T11:07:55;100495.00;;;12.80
15626;BMP180;7912;51.376;6.126;2023-03-12T11:11:04;100498.00;;;12.90
15626;BMP180;7912;51.376;6.126;2023-03-12T11:14:29;100487.00;;;13.10
15626;BMP180;7912;51.376;6.126;2023-03-12T11:18:35;100484.00;;;13.30
15626;BMP180;7912;51.376;6.126;2023-03-12T11:21:16;100492.00;;;13.40
15626;BMP180;7912;51.376;6.126;2023-03-12T11:24:34;100483.00;;;13.50
15626;BMP180;7912;51.376;6.126;2023-03-12T11:28:06;100487.00;;;13.50
15626;BMP180;7912;51.376;6.126;2023-03-12T12:01:51;100497.00;;;14.50
15626;BMP180;7912;51.376;6.126;2023-03-12T12:14:53;100483.00;;;15.30
15626;BMP180;7912;51.376;6.126;2023-03-12T12:18:33;100479.00;;;15.60
15626;BMP180;7912;51.376;6.126;2023-03-12T12:26:08;100463.00;;;15.90
15626;BMP180;7912;51.376;6.126;2023-03-12T12:31:58;100440.00;;;16.40
15626;BMP180;7912;51.376;6.126;2023-03-12T13:03:18;100434.00;;;16.90
15626;BMP180;7912;51.376;6.126;2023-03-12T13:06:10;100428.00;;;17.10
15626;BMP180;7912;51.376;6.126;2023-03-12T13:09:51;100412.00;;;17.30
15626;BMP180;7912;51.376;6.126;2023-03-12T13:33:03;100408.00;;;17.60
15626;BMP180;7912;51.376;6.126;2023-03-12T13:39:50;100383.00;;;17.40
15626;BMP180;7912;51.376;6.126;2023-03-12T13:43:00;100385.00;;;17.40
15626;BMP180;7912;51.376;6.126;2023-03-12T13:53:37;100372.00;;;17.00
15626;BMP180;7912;51.376;6.126;2023-03-12T14:19:44;100373.00;;;17.40
15626;BMP180;7912;51.376;6.126;2023-03-12T14:42:32;100399.00;;;17.10
15626;BMP180;7912;51.376;6.126;2023-03-12T14:54:00;100427.00;;;16.70
15626;BMP180;7912;51.376;6.126;2023-03-12T14:57:33;100427.00;;;16.50
15626;BMP180;7912;51.376;6.126;2023-03-12T15:00:01;100430.00;;;16.40
15626;BMP180;7912;51.376;6.126;2023-03-12T15:02:30;100425.00;;;16.40
15626;BMP180;7912;51.376;6.126;2023-03-12T15:05:00;100421.00;;;16.40
15626;BMP180;7912;51.376;6.126;2023-03-12T15:07:33;100427.00;;;16.50
15626;BMP180;7912;51.376;6.126;2023-03-12T15:10:05;100416.00;;;16.50
15626;BMP180;7912;51.376;6.126;2023-03-12T15:12:36;100426.00;;;16.50
15626;BMP180;7912;51.376;6.126;2023-03-12T15:15:43;100417.00;;;16.50
15626;BMP180;7912;51.376;6.126;2023-03-12T15:18:25;100422.00;;;16.70
15626;BMP180;7912;51.376;6.126;2023-03-12T15:20:56;100424.00;;;16.80
15626;BMP180;7912;51.376;6.126;2023-03-12T15:23:28;100418.00;;;16.90
15626;BMP180;7912;51.376;6.126;2023-03-12T15:26:16;100424.00;;;16.90
15626;BMP180;7912;51.376;6.126;2023-03-12T15:29:00;100426.00;;;16.90
15626;BMP180;7912;51.376;6.126;2023-03-12T15:31:41;100429.00;;;16.80
15626;BMP180;7912;51.376;6.126;2023-03-12T15:34:27;100428.00;;;16.90
15626;BMP180;7912;51.376;6.126;2023-03-12T15:37:18;100439.00;;;16.80
15626;BMP180;7912;51.376;6.126;2023-03-12T15:39:56;100438.00;;;16.80
15626;BMP180;7912;51.376;6.126;2023-03-12T15:42:26;100431.00;;;16.80
15626;BMP180;7912;51.376;6.126;2023-03-12T15:45:24;100450.00;;;16.70
15626;BMP180;7912;51.376;6.126;2023-03-12T15:47:53;100444.00;;;16.70
15626;BMP180;7912;51.376;6.126;2023-03-12T15:50:34;100442.00;;;16.60
15626;BMP180;7912;51.376;6.126;2023-03-12T15:56:04;100454.00;;;16.50
15626;BMP180;7912;51.376;6.126;2023-03-12T15:58:38;100445.00;;;16.50
15626;BMP180;7912;51.376;6.126;2023-03-12T16:01:15;100454.00;;;16.40
15626;BMP180;7912;51.376;6.126;2023-03-12T16:03:44;100448.00;;;16.40
15626;BMP180;7912;51.376;6.126;2023-03-12T16:06:25;100454.00;;;16.40
15626;BMP180;7912;51.376;6.126;2023-03-12T16:09:00;100446.00;;;16.40
15626;BMP180;7912;51.376;6.126;2023-03-12T16:11:32;100441.00;;;16.30
15626;BMP180;7912;51.376;6.126;2023-03-12T16:14:14;100453.00;;;16.30
15626;BMP180;7912;51.376;6.126;2023-03-12T16:20:52;100459.00;;;16.20
15626;BMP180;7912;51.376;6.126;2023-03-12T16:23:20;100450.00;;;16.20
15626;BMP180;7912;51.376;6.126;2023-03-12T16:25:51;100431.00;;;16.20
15626;BMP180;7912;51.376;6.126;2023-03-12T16:28:21;100430.00;;;16.20
15626;BMP180;7912;51.376;6.126;2023-03-12T16:30:50;100452.00;;;16.20
15626;BMP180;7912;51.376;6.126;2023-03-12T16:33:23;100447.00;;;16.10
15626;BMP180;7912;51.376;6.126;2023-03-12T16:35:51;100452.00;;;16.10
15626;BMP180;7912;51.376;6.126;2023-03-12T16:38:18;100444.00;;;16.10
15626;BMP180;7912;51.376;6.126;2023-03-12T16:40:48;100437.00;;;16.00
15626;BMP180;7912;51.376;6.126;2023-03-12T16:43:41;100435.00;;;16.00
15626;BMP180;7912;51.376;6.126;2023-03-12T16:46:16;100442.00;;;16.00
15626;BMP180;7912;51.376;6.126;2023-03-12T16:48:49;100438.00;;;16.00
15626;BMP180;7912;51.376;6.126;2023-03-12T16:51:19;100446.00;;;15.90
15626;BMP180;7912;51.376;6.126;2023-03-12T16:53:47;100436.00;;;15.90
15626;BMP180;7912;51.376;6.126;2023-03-12T16:56:31;100438.00;;;15.80
15626;BMP180;7912;51.376;6.126;2023-03-12T16:59:05;100441.00;;;15.80
15626;BMP180;7912;51.376;6.126;2023-03-12T17:01:35;100440.00;;;15.70
15626;BMP180;7912;51.376;6.126;2023-03-12T17:04:10;100428.00;;;15.70
15626;BMP180;7912;51.376;6.126;2023-03-12T17:06:37;100438.00;;;15.70
15626;BMP180;7912;51.376;6.126;2023-03-12T17:09:06;100438.00;;;15.60
15626;BMP180;7912;51.376;6.126;2023-03-12T17:11:36;100437.00;;;15.60
15626;BMP180;7912;51.376;6.126;2023-03-12T17:14:28;100445.00;;;15.50
15626;BMP180;7912;51.376;6.126;2023-03-12T17:16:57;100439.00;;;15.50
15626;BMP180;7912;51.376;6.126;2023-03-12T17:19:25;100445.00;;;15.40
15626;BMP180;7912;51.376;6.126;2023-03-12T17:21:52;100453.00;;;15.40
15626;BMP180;7912;51.376;6.126;2023-03-12T17:24:20;100457.00;;;15.40
15626;BMP180;7912;51.376;6.126;2023-03-12T17:30:54;100474.00;;;15.20
15626;BMP180;7912;51.376;6.126;2023-03-12T17:33:27;100475.00;;;15.20
15626;BMP180;7912;51.376;6.126;2023-03-12T17:36:08;100456.00;;;15.20
15626;BMP180;7912;51.376;6.126;2023-03-12T17:38:37;100467.00;;;15.10
15626;BMP180;7912;51.376;6.126;2023-03-12T17:41:05;100460.00;;;15.10
15626;BMP180;7912;51.376;6.126;2023-03-12T17:48:23;100474.00;;;14.90
15626;BMP180;7912;51.376;6.126;2023-03-12T17:50:51;100489.00;;;15.00
15626;BMP180;7912;51.376;6.126;2023-03-12T17:53:18;100491.00;;;15.00
15626;BMP180;7912;51.376;6.126;2023-03-12T17:55:46;100491.00;;;15.00
15626;BMP180;7912;51.376;6.126;2023-03-12T17:58:13;100495.00;;;15.00
15626;BMP180;7912;51.376;6.126;2023-03-12T18:00:40;100494.00;;;15.00
15626;BMP180;7912;51.376;6.126;2023-03-12T18:03:08;100485.00;;;15.00
15626;BMP180;7912;51.376;6.126;2023-03-12T18:05:38;100486.00;;;15.00
15626;BMP180;7912;51.376;6.126;2023-03-12T18:08:09;100486.00;;;15.00
15626;BMP180;7912;51.376;6.126;2023-03-12T18:10:40;100486.00;;;15.00
15626;BMP180;7912;51.376;6.126;2023-03-12T18:13:07;100491.00;;;15.00
15626;BMP180;7912;51.376;6.126;2023-03-12T18:15:34;100484.00;;;15.00
15626;BMP180;7912;51.376;6.126;2023-03-12T18:18:02;100491.00;;;15.00
15626;BMP180;7912;51.376;6.126;2023-03-12T18:20:29;100489.00;;;15.00
15626;BMP180;7912;51.376;6.126;2023-03-12T18:23:07;100493.00;;;15.00
15626;BMP180;7912;51.376;6.126;2023-03-12T18:25:36;100490.00;;;15.10
15626;BMP180;7912;51.376;6.126;2023-03-12T18:28:04;100497.00;;;15.10
15626;BMP180;7912;51.376;6.126;2023-03-12T18:30:32;100498.00;;;15.10
15626;BMP180;7912;51.376;6.126;2023-03-12T18:33:00;100494.00;;;15.10
15626;BMP180;7912;51.376;6.126;2023-03-12T18:35:27;100493.00;;;15.10
15626;BMP180;7912;51.376;6.126;2023-03-12T18:37:57;100495.00;;;15.10
15626;BMP180;7912;51.376;6.126;2023-03-12T18:40:28;100495.00;;;15.10
15626;BMP180;7912;51.376;6.126;2023-03-12T18:43:02;100486.00;;;15.10
15626;BMP180;7912;51.376;6.126;2023-03-12T18:45:30;100483.00;;;15.00
15626;BMP180;7912;51.376;6.126;2023-03-12T18:47:59;100472.00;;;15.00
15626;BMP180;7912;51.376;6.126;2023-03-12T18:50:26;100474.00;;;15.00
15626;BMP180;7912;51.376;6.126;2023-03-12T18:52:54;100480.00;;;15.00
15626;BMP180;7912;51.376;6.126;2023-03-12T18:55:21;100473.00;;;15.00
15626;BMP180;7912;51.376;6.126;2023-03-12T18:57:49;100476.00;;;15.00
15626;BMP180;7912;51.376;6.126;2023-03-12T19:00:17;100479.00;;;15.10
15626;BMP180;7912;51.376;6.126;2023-03-12T19:02:46;100478.00;;;15.10
15626;BMP180;7912;51.376;6.126;2023-03-12T19:05:15;100481.00;;;15.10
15626;BMP180;7912;51.376;6.126;2023-03-12T19:07:43;100469.00;;;15.10
15626;BMP180;7912;51.376;6.126;2023-03-12T19:10:11;100472.00;;;15.10
15626;BMP180;7912;51.376;6.126;2023-03-12T19:12:39;100460.00;;;15.10
15626;BMP180;7912;51.376;6.126;2023-03-12T19:15:22;100468.00;;;15.10
15626;BMP180;7912;51.376;6.126;2023-03-12T19:17:52;100464.00;;;15.00
15626;BMP180;7912;51.376;6.126;2023-03-12T19:20:20;100464.00;;;15.10
15626;BMP180;7912;51.376;6.126;2023-03-12T19:22:55;100458.00;;;15.00
15626;BMP180;7912;51.376;6.126;2023-03-12T19:25:27;100448.00;;;15.10
15626;BMP180;7912;51.376;6.126;2023-03-12T19:27:58;100463.00;;;15.10
15626;BMP180;7912;51.376;6.126;2023-03-12T19:30:29;100449.00;;;15.00
15626;BMP180;7912;51.376;6.126;2023-03-12T19:33:05;100434.00;;;15.00
15626;BMP180;7912;51.376;6.126;2023-03-12T19:35:39;100428.00;;;15.00
15626;BMP180;7912;51.376;6.126;2023-03-12T19:38:08;100442.00;;;14.90
15626;BMP180;7912;51.376;6.126;2023-03-12T19:40:40;100434.00;;;14.90
15626;BMP180;7912;51.376;6.126;2023-03-12T19:43:07;100423.00;;;14.80
15626;BMP180;7912;51.376;6.126;2023-03-12T19:45:35;100437.00;;;14.80
15626;BMP180;7912;51.376;6.126;2023-03-12T19:48:03;100433.00;;;14.80
15626;BMP180;7912;51.376;6.126;2023-03-12T19:50:30;100431.00;;;14.70
15626;BMP180;7912;51.376;6.126;2023-03-12T19:52:58;100420.00;;;14.70
15626;BMP180;7912;51.376;6.126;2023-03-12T19:55:25;100424.00;;;14.60
15626;BMP180;7912;51.376;6.126;2023-03-12T19:58:08;100430.00;;;14.60
15626;BMP180;7912;51.376;6.126;2023-03-12T20:00:35;100428.00;;;14.50
15626;BMP180;7912;51.376;6.126;2023-03-12T20:03:04;100418.00;;;14.40